createdAt,value
2023-01-17T00:03:56.064Z,2.64
2023-01-17T00:09:17.668Z,2.65
2023-01-17T00:14:20.780Z,2.65
2023-01-17T00:19:42.626Z,2.64
2023-01-17T00:25:04.470Z,2.65
2023-01-17T00:30:08.335Z,2.65
2023-01-17T00:35:11.300Z,2.64
2023-01-17T00:40:14.417Z,2.63
2023-01-17T00:45:36.266Z,2.59
2023-01-17T00:50:58.110Z,2.55
2023-01-17T00:56:21.393Z,2.48
2023-01-17T01:01:43.061Z,2.41
2023-01-17T01:07:04.673Z,2.36
2023-01-17T01:12:26.316Z,2.32
2023-01-17T01:17:47.754Z,2.30
2023-01-17T01:23:09.092Z,2.29
2023-01-17T01:28:33.603Z,2.29
2023-01-17T01:33:36.607Z,2.28
2023-01-17T01:38:40.042Z,2.27
2023-01-17T01:43:50.007Z,2.27
2023-01-17T01:48:58.855Z,2.27
2023-01-17T01:54:12.294Z,2.26
2023-01-17T01:59:19.554Z,2.24
2023-01-17T02:04:23.538Z,2.22
2023-01-17T02:09:27.913Z,2.20
2023-01-17T02:14:31.070Z,2.19
2023-01-17T02:20:07.358Z,2.17
2023-01-17T02:25:28.899Z,2.15
2023-01-17T02:30:42.664Z,2.13
2023-01-17T02:36:16.809Z,2.12
2023-01-17T02:41:25.112Z,2.10
2023-01-17T02:46:28.031Z,2.10
2023-01-17T02:51:45.184Z,2.10
2023-01-17T02:57:03.643Z,2.11
2023-01-17T03:02:10.510Z,2.11
2023-01-17T03:07:17.716Z,2.11
2023-01-17T03:12:21.743Z,2.11
2023-01-17T03:17:29.287Z,2.09
2023-01-17T03:22:32.390Z,2.09
2023-01-17T03:27:35.407Z,2.06
2023-01-17T03:32:38.404Z,2.03
2023-01-17T03:37:41.412Z,2.00
2023-01-17T03:42:44.528Z,1.97
2023-01-17T03:47:47.420Z,1.93
2023-01-17T03:52:51.357Z,1.90
2023-01-17T03:57:54.252Z,1.86
2023-01-17T04:02:57.259Z,1.82
2023-01-17T04:08:00.278Z,1.79
2023-01-17T04:13:03.271Z,1.74
2023-01-17T04:18:07.034Z,1.70
2023-01-17T04:23:10.631Z,1.68
2023-01-17T04:28:14.032Z,1.65
2023-01-17T04:33:17.446Z,1.64
2023-01-17T04:38:20.768Z,1.65
2023-01-17T04:43:23.765Z,1.67
2023-01-17T04:48:27.418Z,1.69
2023-01-17T04:53:30.616Z,1.71
2023-01-17T04:58:33.915Z,1.72
2023-01-17T05:03:36.933Z,1.74
2023-01-17T05:08:40.028Z,1.74
2023-01-17T05:13:43.138Z,1.75
2023-01-17T05:18:46.156Z,1.75
2023-01-17T05:23:49.360Z,1.77
2023-01-17T05:28:52.357Z,1.78
2023-01-17T05:33:55.480Z,1.78
2023-01-17T05:38:58.374Z,1.78
2023-01-17T05:44:01.377Z,1.78
2023-01-17T05:49:04.596Z,1.79
2023-01-17T05:54:07.596Z,1.81
2023-01-17T05:59:13.953Z,1.84
2023-01-17T06:04:17.383Z,1.86
2023-01-17T06:09:20.405Z,1.90
2023-01-17T06:14:23.512Z,1.95
2023-01-17T06:19:26.518Z,2.01
2023-01-17T06:24:30.552Z,2.08
2023-01-17T06:29:33.560Z,2.13
2023-01-17T06:34:37.902Z,2.18
2023-01-17T06:39:41.107Z,2.24
2023-01-17T06:44:44.110Z,2.31
2023-01-17T06:49:47.220Z,2.38
2023-01-17T06:54:50.125Z,2.44
2023-01-17T06:59:53.314Z,2.52
2023-01-17T07:04:56.339Z,2.60
2023-01-17T07:10:00.584Z,2.68
2023-01-17T07:15:04.160Z,2.73
2023-01-17T07:20:08.261Z,2.79
2023-01-17T07:25:11.240Z,2.84
2023-01-17T07:30:14.838Z,2.88
2023-01-17T07:35:18.399Z,2.93
2023-01-17T07:40:22.722Z,2.98
2023-01-17T07:45:25.623Z,3.02
2023-01-17T07:50:28.726Z,3.07
2023-01-17T07:55:31.840Z,3.13
2023-01-17T08:00:34.839Z,3.19
2023-01-17T08:05:37.858Z,3.25
2023-01-17T08:10:40.852Z,3.30
2023-01-17T08:15:43.857Z,3.35
2023-01-17T08:20:46.965Z,3.40
2023-01-17T08:25:50.180Z,3.46
2023-01-17T08:30:53.185Z,3.51
2023-01-17T08:35:56.393Z,3.55
2023-01-17T08:41:02.986Z,3.58
2023-01-17T08:46:06.595Z,3.61
2023-01-17T08:51:09.979Z,3.67
2023-01-17T08:56:13.132Z,3.73
2023-01-17T09:01:16.512Z,3.78
2023-01-17T09:06:19.967Z,3.85
2023-01-17T09:11:22.866Z,3.96
2023-01-17T09:16:26.320Z,4.05
2023-01-17T09:21:29.699Z,4.08
2023-01-17T09:26:32.707Z,4.06
2023-01-17T09:31:35.934Z,4.06
2023-01-17T09:36:39.022Z,4.08
2023-01-17T09:42:00.567Z,4.15
2023-01-17T09:47:15.796Z,4.21
2023-01-17T09:52:23.473Z,4.27
2023-01-17T09:57:59.727Z,4.33
2023-01-17T10:03:24.146Z,4.44
2023-01-17T10:09:18.751Z,4.55
2023-01-17T10:14:40.840Z,4.62
2023-01-17T10:20:12.014Z,4.69
2023-01-17T10:25:43.089Z,4.86
2023-01-17T10:30:58.391Z,4.98
2023-01-17T10:36:05.767Z,4.99
2023-01-17T10:41:24.445Z,4.94
2023-01-17T10:46:56.433Z,4.88
2023-01-17T10:52:13.468Z,4.82
2023-01-17T10:57:21.377Z,4.81
2023-01-17T11:02:30.030Z,4.85
2023-01-17T11:07:33.140Z,4.87
2023-01-17T11:12:47.282Z,4.85
2023-01-17T11:18:15.105Z,4.81
2023-01-17T11:23:21.483Z,4.77
2023-01-17T11:28:33.147Z,4.75
2023-01-17T11:33:55.876Z,4.81
2023-01-17T11:39:04.778Z,4.92
2023-01-17T11:44:26.451Z,5.05
2023-01-17T11:49:29.552Z,5.13
2023-01-17T11:54:39.246Z,5.17
2023-01-17T11:59:46.044Z,5.19
2023-01-17T12:04:52.004Z,5.19
2023-01-17T12:10:19.875Z,5.21
2023-01-17T12:15:34.146Z,5.22
2023-01-17T12:20:51.291Z,5.24
2023-01-17T12:26:19.888Z,5.25
2023-01-17T12:31:36.974Z,5.25
2023-01-17T12:36:49.711Z,5.23
2023-01-17T12:42:00.006Z,5.15
2023-01-17T12:47:05.927Z,5.00
2023-01-17T12:52:29.812Z,4.86
2023-01-17T12:57:39.370Z,4.77
2023-01-17T13:02:54.363Z,4.74
2023-01-17T13:08:12.827Z,4.69
2023-01-17T13:13:24.329Z,4.66
2023-01-17T13:18:30.020Z,4.60
2023-01-17T13:24:07.965Z,4.53
2023-01-17T13:29:22.921Z,4.45
2023-01-17T13:34:41.994Z,4.38
2023-01-17T13:40:22.701Z,4.33
2023-01-17T13:45:31.913Z,4.28
2023-01-17T13:50:40.992Z,4.24
2023-01-17T13:55:46.870Z,4.23
2023-01-17T14:00:50.875Z,4.23
2023-01-17T14:05:57.579Z,4.24
2023-01-17T14:11:09.987Z,4.26
2023-01-17T14:16:22.006Z,4.25
2023-01-17T14:21:26.979Z,4.27
2023-01-17T14:26:32.869Z,4.26
2023-01-17T14:31:36.082Z,4.22
2023-01-17T14:36:39.738Z,4.18
2023-01-17T14:41:43.612Z,4.13
2023-01-17T14:46:49.063Z,4.09
2023-01-17T14:52:02.837Z,4.06
2023-01-17T14:57:35.129Z,4.02
2023-01-17T15:02:43.904Z,3.98
2023-01-17T15:07:53.027Z,3.98
2023-01-17T15:12:57.938Z,3.95
2023-01-17T15:18:20.951Z,3.94
2023-01-17T15:23:30.046Z,3.93
2023-01-17T15:28:34.725Z,3.92
2023-01-17T15:33:41.250Z,3.93
2023-01-17T15:38:52.942Z,3.97
2023-01-17T15:43:58.710Z,4.03
2023-01-17T15:49:31.316Z,4.04
2023-01-17T15:54:50.564Z,4.03
2023-01-17T16:00:16.046Z,4.02
2023-01-17T16:05:22.312Z,3.96
2023-01-17T16:10:28.936Z,3.91
2023-01-17T16:15:32.456Z,3.87
2023-01-17T16:20:39.339Z,3.83
2023-01-17T16:25:42.430Z,3.81
2023-01-17T16:30:46.366Z,3.77
2023-01-17T16:35:51.439Z,3.71
2023-01-17T16:40:54.625Z,3.60
2023-01-17T16:45:58.190Z,3.44
2023-01-17T16:51:06.167Z,3.33
2023-01-17T16:56:13.745Z,3.26
2023-01-17T17:01:20.905Z,3.22
2023-01-17T17:06:24.096Z,3.19
2023-01-17T17:11:27.102Z,3.22
2023-01-17T17:16:31.004Z,3.28
2023-01-17T17:21:37.004Z,3.35
2023-01-17T17:26:41.158Z,3.41
2023-01-17T17:31:44.354Z,3.46
2023-01-17T17:36:47.463Z,3.52
2023-01-17T17:41:50.465Z,3.59
2023-01-17T17:46:53.675Z,3.63
2023-01-17T17:52:04.655Z,3.61
2023-01-17T17:57:07.777Z,3.57
2023-01-17T18:02:11.344Z,3.52
2023-01-17T18:07:15.024Z,3.46
2023-01-17T18:12:18.131Z,3.35
2023-01-17T18:17:21.083Z,3.17
2023-01-17T18:22:24.578Z,2.95
2023-01-17T18:27:27.563Z,2.71
2023-01-17T18:32:30.662Z,2.47
2023-01-17T18:37:34.191Z,2.24
2023-01-17T18:42:37.395Z,2.03
2023-01-17T18:47:40.325Z,1.88
2023-01-17T18:52:43.301Z,1.70
2023-01-17T18:57:46.314Z,1.57
2023-01-17T19:02:49.316Z,1.53
2023-01-17T19:07:52.717Z,1.61
2023-01-17T19:12:55.844Z,1.81
2023-01-17T19:17:58.958Z,1.93
2023-01-17T19:23:02.057Z,1.93
2023-01-17T19:28:05.268Z,1.91
2023-01-17T19:33:08.283Z,1.89
2023-01-17T19:38:11.288Z,1.86
2023-01-17T19:43:14.293Z,1.86
2023-01-17T19:48:17.297Z,1.86
2023-01-17T19:53:21.814Z,1.81
2023-01-17T19:58:24.748Z,1.71
2023-01-17T20:03:28.270Z,1.63
2023-01-17T20:08:31.373Z,1.52
2023-01-17T20:13:34.585Z,1.36
2023-01-17T20:18:38.619Z,1.17
2023-01-17T20:23:43.189Z,0.98
2023-01-17T20:28:47.922Z,0.82
2023-01-17T20:33:53.376Z,0.63
2023-01-17T20:38:57.462Z,0.46
2023-01-17T20:44:02.466Z,0.31
2023-01-17T20:49:07.821Z,0.19
2023-01-17T20:54:14.420Z,0.08
2023-01-17T20:59:20.392Z,-0.05
2023-01-17T21:04:26.098Z,-0.17
2023-01-17T21:09:29.159Z,-0.24
2023-01-17T21:14:32.313Z,-0.27
2023-01-17T21:19:36.711Z,-0.26
2023-01-17T21:24:39.716Z,-0.19
2023-01-17T21:29:42.818Z,-0.09
2023-01-17T21:34:46.240Z,-0.06
2023-01-17T21:39:54.893Z,-0.06
2023-01-17T21:44:57.985Z,-0.07
2023-01-17T21:50:01.212Z,-0.15
2023-01-17T21:55:23.451Z,-0.25
2023-01-17T22:00:26.454Z,-0.32
2023-01-17T22:05:29.676Z,-0.40
2023-01-17T22:10:33.401Z,-0.53
2023-01-17T22:15:36.657Z,-0.62
2023-01-17T22:20:41.414Z,-0.65
2023-01-17T22:25:44.466Z,-0.67
2023-01-17T22:30:47.685Z,-0.66
2023-01-17T22:35:58.587Z,-0.68
2023-01-17T22:41:09.776Z,-0.72
2023-01-17T22:46:15.470Z,-0.79
2023-01-17T22:51:20.509Z,-0.84
2023-01-17T22:56:28.718Z,-0.92
2023-01-17T23:01:33.067Z,-1.01
2023-01-17T23:06:39.264Z,-1.07
2023-01-17T23:11:50.041Z,-1.18
2023-01-17T23:17:14.123Z,-1.28
2023-01-17T23:22:29.188Z,-1.33
2023-01-17T23:27:51.776Z,-1.38
2023-01-17T23:33:00.119Z,-1.46
2023-01-17T23:38:22.367Z,-1.54
2023-01-17T23:43:25.579Z,-1.63
2023-01-17T23:48:29.174Z,-1.72
2023-01-17T23:53:32.228Z,-1.84
2023-01-17T23:58:35.314Z,-1.89
